sensor_id;sensor_type;location;lat;lon;timestamp;pressure;altitude;pressure_sealevel;temperature;humidity
78623;BME280;67943;54.412;9.502;2023-04-24T00:01:09;99839.75;;;13.07;75.32
78623;BME280;67943;54.412;9.502;2023-04-24T00:06:11;99846.75;;;13.08;75.02
78623;BME280;67943;54.412;9.502;2023-04-24T00:11:13;99827.19;;;13.12;75.32
78623;BME280;67943;54.412;9.502;2023-04-24T00:16:14;99829.97;;;13.09;75.23
78623;BME280;67943;54.412;9.502;2023-04-24T00:21:17;99836.25;;;13.06;75.53
78623;BME280;67943;54.412;9.502;2023-04-24T00:26:19;99829.34;;;13.04;75.77
78623;BME280;67943;54.412;9.502;2023-04-24T00:31:20;99817.19;;;13.00;75.92
78623;BME280;67943;54.412;9.502;2023-04-24T00:36:23;99832.91;;;13.03;75.90
78623;BME280;67943;54.412;9.502;2023-04-24T00:41:25;99815.66;;;12.96;76.10
78623;BME280;67943;54.412;9.502;2023-04-24T00:46:26;99812.59;;;12.86;76.55
78623;BME280;67943;54.412;9.502;2023-04-24T00:51:29;99808.94;;;12.89;76.68
78623;BME280;67943;54.412;9.502;2023-04-24T00:56:32;99791.34;;;12.70;77.18
78623;BME280;67943;54.412;9.502;2023-04-24T01:01:35;99773.00;;;12.67;77.62
78623;BME280;67943;54.412;9.502;2023-04-24T01:06:39;99773.00;;;12.67;77.42
78623;BME280;67943;54.412;9.502;2023-04-24T01:11:41;99767.59;;;12.70;77.65
78623;BME280;67943;54.412;9.502;2023-04-24T01:16:43;99752.31;;;12.58;77.91
78623;BME280;67943;54.412;9.502;2023-04-24T01:21:47;99728.06;;;12.50;78.53
78623;BME280;67943;54.412;9.502;2023-04-24T01:26:53;99719.44;;;12.46;78.71
78623;BME280;67943;54.412;9.502;2023-04-24T01:31:55;99709.59;;;12.50;78.52
78623;BME280;67943;54.412;9.502;2023-04-24T01:36:58;99710.66;;;12.46;78.61
78623;BME280;67943;54.412;9.502;2023-04-24T01:42:01;99706.31;;;12.45;78.64
78623;BME280;67943;54.412;9.502;2023-04-24T01:47:04;99701.03;;;12.45;78.58
78623;BME280;67943;54.412;9.502;2023-04-24T01:52:05;99702.88;;;12.43;78.86
78623;BME280;67943;54.412;9.502;2023-04-24T01:57:08;99697.41;;;12.29;79.15
78623;BME280;67943;54.412;9.502;2023-04-24T02:02:09;99693.84;;;12.11;79.91
78623;BME280;67943;54.412;9.502;2023-04-24T02:07:11;99695.56;;;12.12;79.62
78623;BME280;67943;54.412;9.502;2023-04-24T02:12:14;99698.94;;;12.14;79.78
78623;BME280;67943;54.412;9.502;2023-04-24T02:17:15;99688.63;;;12.09;79.77
78623;BME280;67943;54.412;9.502;2023-04-24T02:22:17;99687.53;;;12.13;79.76
78623;BME280;67943;54.412;9.502;2023-04-24T02:27:20;99683.56;;;12.24;79.40
78623;BME280;67943;54.412;9.502;2023-04-24T02:32:22;99675.16;;;12.15;79.85
78623;BME280;67943;54.412;9.502;2023-04-24T02:37:23;99663.53;;;12.20;79.45
78623;BME280;67943;54.412;9.502;2023-04-24T02:42:26;99661.63;;;12.04;80.25
78623;BME280;67943;54.412;9.502;2023-04-24T02:47:28;99657.41;;;12.19;79.88
78623;BME280;67943;54.412;9.502;2023-04-24T02:52:29;99649.63;;;11.97;80.76
78623;BME280;67943;54.412;9.502;2023-04-24T02:57:32;99654.56;;;12.05;80.16
78623;BME280;67943;54.412;9.502;2023-04-24T03:02:34;99652.13;;;12.00;80.04
78623;BME280;67943;54.412;9.502;2023-04-24T03:07:36;99628.28;;;12.03;80.29
78623;BME280;67943;54.412;9.502;2023-04-24T03:12:39;99641.78;;;11.96;80.31
78623;BME280;67943;54.412;9.502;2023-04-24T03:17:40;99627.84;;;12.12;79.44
78623;BME280;67943;54.412;9.502;2023-04-24T03:22:42;99632.09;;;12.15;79.11
78623;BME280;67943;54.412;9.502;2023-04-24T03:27:44;99633.53;;;12.03;78.79
78623;BME280;67943;54.412;9.502;2023-04-24T03:32:46;99634.09;;;11.91;79.25
78623;BME280;67943;54.412;9.502;2023-04-24T03:37:48;99633.16;;;11.92;79.20
78623;BME280;67943;54.412;9.502;2023-04-24T03:42:50;99634.81;;;11.95;78.52
78623;BME280;67943;54.412;9.502;2023-04-24T03:47:52;99637.66;;;11.90;79.16
78623;BME280;67943;54.412;9.502;2023-04-24T03:52:53;99629.50;;;11.76;79.13
78623;BME280;67943;54.412;9.502;2023-04-24T03:57:56;99637.00;;;11.65;78.72
78623;BME280;67943;54.412;9.502;2023-04-24T04:02:58;99639.53;;;11.47;78.55
78623;BME280;67943;54.412;9.502;2023-04-24T04:08:00;99640.13;;;11.54;77.02
78623;BME280;67943;54.412;9.502;2023-04-24T04:13:03;99629.16;;;11.44;75.97
78623;BME280;67943;54.412;9.502;2023-04-24T04:18:04;99636.13;;;11.45;76.25
78623;BME280;67943;54.412;9.502;2023-04-24T04:23:06;99638.88;;;11.42;76.29
78623;BME280;67943;54.412;9.502;2023-04-24T04:28:09;99636.31;;;11.41;76.22
78623;BME280;67943;54.412;9.502;2023-04-24T04:33:10;99630.25;;;11.39;77.02
78623;BME280;67943;54.412;9.502;2023-04-24T04:38:12;99634.03;;;11.54;76.58
78623;BME280;67943;54.412;9.502;2023-04-24T04:43:16;99635.06;;;11.49;76.32
78623;BME280;67943;54.412;9.502;2023-04-24T04:48:18;99629.81;;;11.49;75.56
78623;BME280;67943;54.412;9.502;2023-04-24T04:53:19;99643.91;;;11.48;74.89
78623;BME280;67943;54.412;9.502;2023-04-24T04:58:22;99641.53;;;11.42;74.80
78623;BME280;67943;54.412;9.502;2023-04-24T05:03:24;99648.88;;;11.34;74.34
78623;BME280;67943;54.412;9.502;2023-04-24T05:08:26;99651.72;;;11.30;74.46
78623;BME280;67943;54.412;9.502;2023-04-24T05:13:29;99646.06;;;11.39;74.16
78623;BME280;67943;54.412;9.502;2023-04-24T05:18:30;99636.47;;;11.18;74.35
78623;BME280;67943;54.412;9.502;2023-04-24T05:23:32;99643.50;;;11.17;74.57
78623;BME280;67943;54.412;9.502;2023-04-24T05:28:35;99643.38;;;11.40;74.19
78623;BME280;67943;54.412;9.502;2023-04-24T05:33:37;99652.16;;;11.60;73.64
78623;BME280;67943;54.412;9.502;2023-04-24T05:38:38;99658.47;;;11.56;74.01
78623;BME280;67943;54.412;9.502;2023-04-24T05:43:41;99658.91;;;11.46;74.84
78623;BME280;67943;54.412;9.502;2023-04-24T05:48:42;99658.06;;;11.46;74.99
78623;BME280;67943;54.412;9.502;2023-04-24T05:53:44;99659.50;;;11.53;74.85
78623;BME280;67943;54.412;9.502;2023-04-24T05:58:47;99646.91;;;11.39;75.38
78623;BME280;67943;54.412;9.502;2023-04-24T06:03:48;99652.44;;;11.33;75.59
78623;BME280;67943;54.412;9.502;2023-04-24T06:08:50;99640.06;;;11.35;75.32
78623;BME280;67943;54.412;9.502;2023-04-24T06:13:53;99641.91;;;11.54;73.99
78623;BME280;67943;54.412;9.502;2023-04-24T06:18:54;99643.09;;;11.46;73.75
78623;BME280;67943;54.412;9.502;2023-04-24T06:23:56;99648.75;;;11.37;73.15
78623;BME280;67943;54.412;9.502;2023-04-24T06:28:59;99652.72;;;11.47;73.33
78623;BME280;67943;54.412;9.502;2023-04-24T06:34:01;99644.94;;;11.44;72.97
78623;BME280;67943;54.412;9.502;2023-04-24T06:39:03;99646.81;;;11.61;72.43
78623;BME280;67943;54.412;9.502;2023-04-24T06:44:06;99650.09;;;11.47;72.62
78623;BME280;67943;54.412;9.502;2023-04-24T06:49:08;99657.97;;;11.47;72.94
78623;BME280;67943;54.412;9.502;2023-04-24T06:54:10;99653.16;;;11.37;73.33
78623;BME280;67943;54.412;9.502;2023-04-24T06:59:13;99658.22;;;11.62;73.19
78623;BME280;67943;54.412;9.502;2023-04-24T07:04:14;99655.75;;;11.38;74.29
78623;BME280;67943;54.412;9.502;2023-04-24T07:09:16;99653.50;;;11.29;74.10
78623;BME280;67943;54.412;9.502;2023-04-24T07:14:20;99655.34;;;11.47;73.50
78623;BME280;67943;54.412;9.502;2023-04-24T07:19:21;99656.06;;;11.51;73.89
78623;BME280;67943;54.412;9.502;2023-04-24T07:24:23;99671.41;;;11.62;73.33
78623;BME280;67943;54.412;9.502;2023-04-24T07:29:26;99659.28;;;11.58;74.03
78623;BME280;67943;54.412;9.502;2023-04-24T07:34:27;99669.03;;;11.76;73.38
78623;BME280;67943;54.412;9.502;2023-04-24T07:39:29;99682.75;;;11.43;74.63
78623;BME280;67943;54.412;9.502;2023-04-24T07:44:32;99679.44;;;11.18;75.53
78623;BME280;67943;54.412;9.502;2023-04-24T07:49:33;99681.75;;;11.26;75.82
78623;BME280;67943;54.412;9.502;2023-04-24T07:54:35;99680.09;;;11.43;75.35
78623;BME280;67943;54.412;9.502;2023-04-24T07:59:38;99689.97;;;11.59;74.75
78623;BME280;67943;54.412;9.502;2023-04-24T08:04:40;99693.25;;;11.64;74.48
78623;BME280;67943;54.412;9.502;2023-04-24T08:09:42;99696.22;;;11.56;75.53
78623;BME280;67943;54.412;9.502;2023-04-24T08:14:44;99700.09;;;11.27;76.56
78623;BME280;67943;54.412;9.502;2023-04-24T08:19:46;99703.25;;;11.35;76.47
78623;BME280;67943;54.412;9.502;2023-04-24T08:24:48;99705.66;;;11.41;77.48
78623;BME280;67943;54.412;9.502;2023-04-24T08:29:52;99720.69;;;11.18;78.58
78623;BME280;67943;54.412;9.502;2023-04-24T08:34:54;99714.53;;;11.39;78.49
78623;BME280;67943;54.412;9.502;2023-04-24T08:39:56;99719.34;;;11.49;77.72
78623;BME280;67943;54.412;9.502;2023-04-24T08:44:59;99731.31;;;11.57;76.50
78623;BME280;67943;54.412;9.502;2023-04-24T08:50:02;99716.38;;;11.37;76.66
78623;BME280;67943;54.412;9.502;2023-04-24T08:55:06;99734.97;;;11.54;75.66
78623;BME280;67943;54.412;9.502;2023-04-24T09:00:10;99743.19;;;11.67;74.66
78623;BME280;67943;54.412;9.502;2023-04-24T09:05:12;99738.97;;;11.63;74.73
78623;BME280;67943;54.412;9.502;2023-04-24T09:10:14;99737.78;;;11.70;74.41
78623;BME280;67943;54.412;9.502;2023-04-24T09:15:18;99736.75;;;11.74;73.62
78623;BME280;67943;54.412;9.502;2023-04-24T09:20:20;99735.97;;;11.92;73.68
78623;BME280;67943;54.412;9.502;2023-04-24T09:25:22;99737.16;;;12.05;73.28
78623;BME280;67943;54.412;9.502;2023-04-24T09:30:25;99734.97;;;12.34;71.56
78623;BME280;67943;54.412;9.502;2023-04-24T09:35:26;99754.22;;;12.73;71.25
78623;BME280;67943;54.412;9.502;2023-04-24T09:40:28;99745.69;;;12.68;70.75
78623;BME280;67943;54.412;9.502;2023-04-24T09:45:36;99749.44;;;12.44;70.96
78623;BME280;67943;54.412;9.502;2023-04-24T09:50:38;99751.88;;;12.30;71.15
78623;BME280;67943;54.412;9.502;2023-04-24T09:55:44;99756.47;;;12.06;72.21
78623;BME280;67943;54.412;9.502;2023-04-24T10:00:49;99761.38;;;12.13;72.97
78623;BME280;67943;54.412;9.502;2023-04-24T10:05:54;99768.66;;;12.08;73.06
78623;BME280;67943;54.412;9.502;2023-04-24T10:10:55;99762.97;;;11.97;73.23
78623;BME280;67943;54.412;9.502;2023-04-24T10:16:00;99769.31;;;11.93;74.12
78623;BME280;67943;54.412;9.502;2023-04-24T10:21:01;99766.13;;;11.85;73.80
78623;BME280;67943;54.412;9.502;2023-04-24T10:26:03;99772.72;;;11.75;74.20
78623;BME280;67943;54.412;9.502;2023-04-24T10:31:06;99764.72;;;11.78;74.46
78623;BME280;67943;54.412;9.502;2023-04-24T10:36:09;99775.59;;;11.69;74.45
78623;BME280;67943;54.412;9.502;2023-04-24T10:41:11;99775.84;;;11.63;75.04
78623;BME280;67943;54.412;9.502;2023-04-24T10:46:19;99773.75;;;11.71;74.15
78623;BME280;67943;54.412;9.502;2023-04-24T10:51:22;99783.72;;;11.84;73.10
78623;BME280;67943;54.412;9.502;2023-04-24T10:56:24;99780.41;;;11.81;73.79
78623;BME280;67943;54.412;9.502;2023-04-24T11:01:28;99797.28;;;11.75;73.60
78623;BME280;67943;54.412;9.502;2023-04-24T11:06:30;99794.03;;;11.69;75.21
78623;BME280;67943;54.412;9.502;2023-04-24T11:11:33;99798.59;;;11.65;76.34
78623;BME280;67943;54.412;9.502;2023-04-24T11:16:40;99806.75;;;11.59;76.73
78623;BME280;67943;54.412;9.502;2023-04-24T11:21:44;99803.84;;;11.45;78.17
78623;BME280;67943;54.412;9.502;2023-04-24T11:26:46;99812.63;;;11.66;78.07
78623;BME280;67943;54.412;9.502;2023-04-24T11:31:49;99808.31;;;11.85;76.64
78623;BME280;67943;54.412;9.502;2023-04-24T11:36:51;99804.38;;;11.95;76.33
78623;BME280;67943;54.412;9.502;2023-04-24T11:41:53;99803.91;;;11.86;75.49
78623;BME280;67943;54.412;9.502;2023-04-24T11:47:04;99811.47;;;11.93;75.58
78623;BME280;67943;54.412;9.502;2023-04-24T11:52:06;99825.13;;;11.82;77.20
78623;BME280;67943;54.412;9.502;2023-04-24T11:57:07;99826.72;;;11.65;78.71
78623;BME280;67943;54.412;9.502;2023-04-24T12:02:19;99816.63;;;11.32;79.69
78623;BME280;67943;54.412;9.502;2023-04-24T12:07:22;99823.84;;;11.27;80.74
78623;BME280;67943;54.412;9.502;2023-04-24T12:12:25;99823.44;;;11.38;80.07
78623;BME280;67943;54.412;9.502;2023-04-24T12:17:30;99838.88;;;11.47;80.07
78623;BME280;67943;54.412;9.502;2023-04-24T12:22:45;99825.31;;;11.34;80.25
78623;BME280;67943;54.412;9.502;2023-04-24T12:27:53;99834.81;;;11.38;79.76
78623;BME280;67943;54.412;9.502;2023-04-24T12:32:57;99833.91;;;11.39;79.80
78623;BME280;67943;54.412;9.502;2023-04-24T12:38:05;99839.34;;;11.13;80.29
78623;BME280;67943;54.412;9.502;2023-04-24T12:43:15;99837.97;;;11.03;80.23
78623;BME280;67943;54.412;9.502;2023-04-24T12:48:18;99845.47;;;11.13;80.81
78623;BME280;67943;54.412;9.502;2023-04-24T12:53:20;99835.56;;;11.20;79.49
78623;BME280;67943;54.412;9.502;2023-04-24T12:58:22;99838.66;;;11.30;79.88
78623;BME280;67943;54.412;9.502;2023-04-24T13:03:25;99848.41;;;11.28;79.21
78623;BME280;67943;54.412;9.502;2023-04-24T13:08:26;99837.81;;;11.07;79.40
78623;BME280;67943;54.412;9.502;2023-04-24T13:13:28;99838.00;;;10.79;81.07
78623;BME280;67943;54.412;9.502;2023-04-24T13:18:31;99833.47;;;11.06;81.17
78623;BME280;67943;54.412;9.502;2023-04-24T13:23:32;99827.38;;;10.82;81.27
78623;BME280;67943;54.412;9.502;2023-04-24T13:28:34;99834.56;;;10.77;82.45
78623;BME280;67943;54.412;9.502;2023-04-24T13:33:37;99844.13;;;10.80;82.36
78623;BME280;67943;54.412;9.502;2023-04-24T13:38:39;99839.94;;;10.98;82.86
78623;BME280;67943;54.412;9.502;2023-04-24T13:43:40;99845.41;;;10.93;81.94
78623;BME280;67943;54.412;9.502;2023-04-24T13:48:44;99841.00;;;10.94;82.03
78623;BME280;67943;54.412;9.502;2023-04-24T13:53:45;99852.13;;;11.00;81.86
78623;BME280;67943;54.412;9.502;2023-04-24T13:58:47;99843.25;;;11.03;80.83
78623;BME280;67943;54.412;9.502;2023-04-24T14:03:50;99840.56;;;11.04;81.34
78623;BME280;67943;54.412;9.502;2023-04-24T14:08:52;99842.94;;;10.89;81.41
78623;BME280;67943;54.412;9.502;2023-04-24T14:13:54;99834.28;;;10.85;80.19
78623;BME280;67943;54.412;9.502;2023-04-24T14:18:57;99842.94;;;10.65;82.24
78623;BME280;67943;54.412;9.502;2023-04-24T14:23:59;99846.00;;;10.53;81.98
78623;BME280;67943;54.412;9.502;2023-04-24T14:29:00;99842.19;;;10.38;82.71
78623;BME280;67943;54.412;9.502;2023-04-24T14:34:03;99841.78;;;10.49;83.55
78623;BME280;67943;54.412;9.502;2023-04-24T14:39:05;99842.47;;;10.77;83.09
78623;BME280;67943;54.412;9.502;2023-04-24T14:44:07;99841.22;;;10.64;82.66
78623;BME280;67943;54.412;9.502;2023-04-24T14:49:10;99841.78;;;10.72;82.36
78623;BME280;67943;54.412;9.502;2023-04-24T14:54:13;99848.31;;;10.62;82.45
78623;BME280;67943;54.412;9.502;2023-04-24T14:59:14;99852.00;;;10.33;81.84
78623;BME280;67943;54.412;9.502;2023-04-24T15:04:17;99855.09;;;10.20;82.68
78623;BME280;67943;54.412;9.502;2023-04-24T15:09:24;99863.53;;;10.29;83.06
78623;BME280;67943;54.412;9.502;2023-04-24T15:14:26;99863.00;;;10.18;84.13
78623;BME280;67943;54.412;9.502;2023-04-24T15:19:29;99876.84;;;9.98;84.03
78623;BME280;67943;54.412;9.502;2023-04-24T15:24:31;99873.38;;;9.71;84.79
78623;BME280;67943;54.412;9.502;2023-04-24T15:29:32;99880.06;;;9.54;85.33
78623;BME280;67943;54.412;9.502;2023-04-24T15:34:35;99877.50;;;9.52;84.47
78623;BME280;67943;54.412;9.502;2023-04-24T15:39:36;99897.41;;;9.31;85.37
78623;BME280;67943;54.412;9.502;2023-04-24T15:44:38;99889.69;;;9.25;85.35
78623;BME280;67943;54.412;9.502;2023-04-24T15:49:41;99891.09;;;9.09;86.19
78623;BME280;67943;54.412;9.502;2023-04-24T15:54:42;99909.38;;;9.12;85.83
78623;BME280;67943;54.412;9.502;2023-04-24T15:59:44;99906.56;;;8.89;86.08
78623;BME280;67943;54.412;9.502;2023-04-24T16:04:48;99915.41;;;8.85;86.30
78623;BME280;67943;54.412;9.502;2023-04-24T16:09:50;99926.66;;;8.90;85.79
78623;BME280;67943;54.412;9.502;2023-04-24T16:14:51;99924.44;;;8.74;86.41
78623;BME280;67943;54.412;9.502;2023-04-24T16:19:54;99942.63;;;8.80;86.29
78623;BME280;67943;54.412;9.502;2023-04-24T16:24:55;99927.16;;;8.71;86.23
78623;BME280;67943;54.412;9.502;2023-04-24T16:29:58;99941.34;;;8.64;85.37
78623;BME280;67943;54.412;9.502;2023-04-24T16:35:01;99946.50;;;8.67;85.15
78623;BME280;67943;54.412;9.502;2023-04-24T16:40:03;99940.88;;;8.49;85.46
78623;BME280;67943;54.412;9.502;2023-04-24T16:45:10;99954.03;;;8.47;85.11
78623;BME280;67943;54.412;9.502;2023-04-24T16:50:12;99967.22;;;8.44;85.11
78623;BME280;67943;54.412;9.502;2023-04-24T16:55:14;99963.69;;;8.45;84.85
78623;BME280;67943;54.412;9.502;2023-04-24T17:00:16;99968.88;;;8.48;84.50
78623;BME280;67943;54.412;9.502;2023-04-24T17:05:19;99970.34;;;8.24;85.00
78623;BME280;67943;54.412;9.502;2023-04-24T17:10:22;99977.81;;;8.05;85.14
78623;BME280;67943;54.412;9.502;2023-04-24T17:15:24;99977.84;;;8.04;84.93
78623;BME280;67943;54.412;9.502;2023-04-24T17:20:27;99978.13;;;7.92;84.23
78623;BME280;67943;54.412;9.502;2023-04-24T17:25:29;99984.28;;;7.89;82.96
78623;BME280;67943;54.412;9.502;2023-04-24T17:30:30;99970.50;;;7.81;83.50
78623;BME280;67943;54.412;9.502;2023-04-24T17:35:33;99994.28;;;7.73;84.15
78623;BME280;67943;54.412;9.502;2023-04-24T17:40:34;99982.06;;;7.72;82.84
78623;BME280;67943;54.412;9.502;2023-04-24T17:45:37;99981.09;;;7.78;82.79
78623;BME280;67943;54.412;9.502;2023-04-24T17:50:41;99983.00;;;7.70;83.68
78623;BME280;67943;54.412;9.502;2023-04-24T17:55:42;99990.94;;;7.67;84.10
78623;BME280;67943;54.412;9.502;2023-04-24T18:00:44;99984.78;;;7.68;84.49
78623;BME280;67943;54.412;9.502;2023-04-24T18:05:47;99997.59;;;7.80;85.05
78623;BME280;67943;54.412;9.502;2023-04-24T18:10:48;99990.91;;;7.68;85.13
78623;BME280;67943;54.412;9.502;2023-04-24T18:15:50;99988.91;;;7.79;85.97
78623;BME280;67943;54.412;9.502;2023-04-24T18:20:53;99995.75;;;7.84;86.47
78623;BME280;67943;54.412;9.502;2023-04-24T18:25:54;100001.84;;;7.84;86.95
78623;BME280;67943;54.412;9.502;2023-04-24T18:30:56;100009.72;;;7.84;87.01
78623;BME280;67943;54.412;9.502;2023-04-24T18:35:59;99997.66;;;7.78;86.98
78623;BME280;67943;54.412;9.502;2023-04-24T18:41:00;100004.72;;;7.75;87.04
78623;BME280;67943;54.412;9.502;2023-04-24T18:46:02;99998.31;;;7.87;87.14
78623;BME280;67943;54.412;9.502;2023-04-24T18:51:05;100005.38;;;7.83;86.89
78623;BME280;67943;54.412;9.502;2023-04-24T18:56:06;100017.81;;;7.75;87.04
78623;BME280;67943;54.412;9.502;2023-04-24T19:01:08;100009.06;;;7.76;87.55
78623;BME280;67943;54.412;9.502;2023-04-24T19:06:10;100022.09;;;7.79;88.09
78623;BME280;67943;54.412;9.502;2023-04-24T19:11:12;100015.72;;;7.89;88.24
78623;BME280;67943;54.412;9.502;2023-04-24T19:16:13;100013.78;;;7.97;88.68
78623;BME280;67943;54.412;9.502;2023-04-24T19:21:16;100020.91;;;7.91;88.66
78623;BME280;67943;54.412;9.502;2023-04-24T19:26:18;100019.84;;;7.99;89.01
78623;BME280;67943;54.412;9.502;2023-04-24T19:31:21;100033.81;;;8.00;89.07
78623;BME280;67943;54.412;9.502;2023-04-24T19:36:24;100028.34;;;8.09;88.94
78623;BME280;67943;54.412;9.502;2023-04-24T19:41:26;100030.91;;;8.10;88.81
78623;BME280;67943;54.412;9.502;2023-04-24T19:46:27;100053.41;;;8.21;89.32
78623;BME280;67943;54.412;9.502;2023-04-24T19:51:30;100047.63;;;8.43;89.10
78623;BME280;67943;54.412;9.502;2023-04-24T19:56:32;100047.38;;;8.54;88.15
78623;BME280;67943;54.412;9.502;2023-04-24T20:01:34;100056.00;;;8.59;88.00
78623;BME280;67943;54.412;9.502;2023-04-24T20:06:37;100066.06;;;8.74;87.82
78623;BME280;67943;54.412;9.502;2023-04-24T20:11:38;100073.47;;;8.93;87.03
78623;BME280;67943;54.412;9.502;2023-04-24T20:16:40;100073.94;;;9.07;85.63
78623;BME280;67943;54.412;9.502;2023-04-24T20:21:43;100072.47;;;8.97;85.04
78623;BME280;67943;54.412;9.502;2023-04-24T20:26:44;100084.94;;;8.89;84.90
78623;BME280;67943;54.412;9.502;2023-04-24T20:31:46;100090.97;;;8.92;85.14
78623;BME280;67943;54.412;9.502;2023-04-24T20:36:48;100096.03;;;8.98;83.95
78623;BME280;67943;54.412;9.502;2023-04-24T20:41:50;100102.16;;;8.99;84.20
78623;BME280;67943;54.412;9.502;2023-04-24T20:46:51;100110.34;;;8.87;83.35
78623;BME280;67943;54.412;9.502;2023-04-24T20:51:54;100117.28;;;8.89;82.62
78623;BME280;67943;54.412;9.502;2023-04-24T20:56:58;100114.22;;;8.72;82.58
78623;BME280;67943;54.412;9.502;2023-04-24T21:02:01;100114.53;;;8.60;83.03
78623;BME280;67943;54.412;9.502;2023-04-24T21:07:03;100116.25;;;8.61;82.99
78623;BME280;67943;54.412;9.502;2023-04-24T21:12:05;100128.63;;;8.56;83.50
78623;BME280;67943;54.412;9.502;2023-04-24T21:17:07;100127.44;;;8.67;83.26
78623;BME280;67943;54.412;9.502;2023-04-24T21:22:10;100134.41;;;8.68;82.97
78623;BME280;67943;54.412;9.502;2023-04-24T21:27:11;100130.88;;;8.69;82.48
78623;BME280;67943;54.412;9.502;2023-04-24T21:32:13;100147.69;;;8.62;82.26
78623;BME280;67943;54.412;9.502;2023-04-24T21:37:15;100144.38;;;8.54;81.87
78623;BME280;67943;54.412;9.502;2023-04-24T21:42:17;100145.06;;;8.62;81.55
78623;BME280;67943;54.412;9.502;2023-04-24T21:47:18;100147.69;;;8.62;80.97
78623;BME280;67943;54.412;9.502;2023-04-24T21:52:21;100156.53;;;8.58;79.45
78623;BME280;67943;54.412;9.502;2023-04-24T21:57:23;100164.47;;;8.55;79.72
78623;BME280;67943;54.412;9.502;2023-04-24T22:02:24;100163.94;;;8.39;77.66
78623;BME280;67943;54.412;9.502;2023-04-24T22:07:27;100178.97;;;8.33;78.82
78623;BME280;67943;54.412;9.502;2023-04-24T22:12:30;100194.84;;;8.24;77.42
78623;BME280;67943;54.412;9.502;2023-04-24T22:17:31;100189.59;;;8.24;77.04
78623;BME280;67943;54.412;9.502;2023-04-24T22:22:35;100186.06;;;8.26;74.75
78623;BME280;67943;54.412;9.502;2023-04-24T22:27:36;100175.72;;;8.19;75.56
78623;BME280;67943;54.412;9.502;2023-04-24T22:32:38;100189.84;;;8.11;75.29
78623;BME280;67943;54.412;9.502;2023-04-24T22:37:41;100191.59;;;8.12;74.22
78623;BME280;67943;54.412;9.502;2023-04-24T22:42:42;100200.56;;;8.02;74.49
78623;BME280;67943;54.412;9.502;2023-04-24T22:47:44;100191.00;;;8.00;73.80
78623;BME280;67943;54.412;9.502;2023-04-24T22:52:47;100205.91;;;7.96;74.32
78623;BME280;67943;54.412;9.502;2023-04-24T22:57:48;100201.69;;;7.89;74.60
78623;BME280;67943;54.412;9.502;2023-04-24T23:02:50;100207.75;;;7.91;74.58
78623;BME280;67943;54.412;9.502;2023-04-24T23:07:53;100206.84;;;7.92;74.05
78623;BME280;67943;54.412;9.502;2023-04-24T23:12:55;100206.13;;;7.84;74.47
78623;BME280;67943;54.412;9.502;2023-04-24T23:17:56;100206.88;;;7.91;73.02
78623;BME280;67943;54.412;9.502;2023-04-24T23:22:59;100213.03;;;7.88;72.76
78623;BME280;67943;54.412;9.502;2023-04-24T23:28:01;100208.00;;;7.79;73.28
78623;BME280;67943;54.412;9.502;2023-04-24T23:33:02;100215.88;;;7.79;72.60
78623;BME280;67943;54.412;9.502;2023-04-24T23:38:05;100211.41;;;7.83;71.66
78623;BME280;67943;54.412;9.502;2023-04-24T23:43:06;100207.22;;;7.75;72.03
78623;BME280;67943;54.412;9.502;2023-04-24T23:48:08;100213.41;;;7.70;72.83
78623;BME280;67943;54.412;9.502;2023-04-24T23:53:11;100220.44;;;7.68;72.87
78623;BME280;67943;54.412;9.502;2023-04-24T23:58:12;100226.81;;;7.53;73.85
